This is the latest recevied weather packets stored in our database for station/object W4CKA. If no packets are shown the sender has not sent any weather packets the latest 10 day(s).
| Time | Temp. | Humidity | Pressure | Rain* | Wind** | Luminosity | Snow |
|---|---|---|---|---|---|---|---|
| 1778079914 | 17.78° C | 98% | 1055.1 hPa | 0 mm | - | 39 W/m² | - |
| 1778079313 | 17.78° C | 98% | 1055.1 hPa | 0 mm | - | 49 W/m² | - |
| 1778078713 | 17.22° C | 98% | 1054.9 hPa | 0 mm | - | 39 W/m² | - |
| 1778078108 | 17.22° C | 99% | 1054.4 hPa | 0 mm | - | 133 W/m² | - |
| 1778077504 | 16.67° C | 99% | 1054.3 hPa | 0 mm | - | 124 W/m² | - |
| 1778076899 | 16.11° C | 99% | 1053.8 hPa | 0 mm | - | 128 W/m² | - |
| 1778076294 | 15.56° C | 99% | 1054.1 hPa | 0.51 mm | - | 100 W/m² | - |
| 1778075694 | 15.56° C | 99% | 1054.1 hPa | 0 mm | - | 99 W/m² | - |
| 1778075092 | 15.56° C | 99% | 1054.1 hPa | 0 mm | - | 46 W/m² | - |
| 1778074492 | 15° C | 99% | 1054.1 hPa | 0 mm | - | 35 W/m² | - |
| 1778073891 | 15° C | 99% | 1054.1 hPa | 0 mm | - | 51 W/m² | - |
| 1778073291 | 15° C | 99% | 1054.1 hPa | 0 mm | - | 50 W/m² | - |
| 1778072690 | 15° C | 99% | 1054.2 hPa | 0.51 mm | - | 44 W/m² | - |
| 1778072086 | 15° C | 99% | 1053.9 hPa | 0 mm | - | 31 W/m² | - |
| 1778071481 | 14.44° C | 99% | 1053.6 hPa | 0.51 mm | - | 24 W/m² | - |
| 1778070877 | 14.44° C | 99% | 1053.7 hPa | 0 mm | - | 32 W/m² | - |
| 1778070277 | 14.44° C | 99% | 1053.7 hPa | 0 mm | - | 45 W/m² | - |
| 1778069672 | 14.44° C | 99% | 1053.7 hPa | 0 mm | - | 38 W/m² | - |
| 1778069072 | 14.44° C | 99% | 1053.7 hPa | 0 mm | - | 26 W/m² | - |
| 1778068467 | 14.44° C | 99% | 1053.5 hPa | 0 mm | - | 11 W/m² | - |
| 1778067862 | 14.44° C | 99% | 1052.6 hPa | 0 mm | - | 35 W/m² | - |
| 1778067258 | 14.44° C | 99% | 1053.2 hPa | 1.27 mm | - | 0 W/m² | - |
| 1778066658 | 14.44° C | 99% | 1052.8 hPa | 0.51 mm | - | 2 W/m² | - |
| 1778066054 | 14.44° C | 99% | 1052.8 hPa | 0 mm | - | 2 W/m² | - |
| 1778065454 | 14.44° C | 99% | 1052.7 hPa | 0 mm | - | 0 W/m² | - |
* Rain latest hour (hover to see other rain measurements)
** Current wind speed in m/s (hover to see current wind gust speed)